createdAt,value
2018-09-02T00:02:09.181Z,5.37
2018-09-02T00:04:37.659Z,5.63
2018-09-02T00:07:06.176Z,5.80
2018-09-02T00:09:35.381Z,5.43
2018-09-02T00:12:04.973Z,6.50
2018-09-02T00:14:34.530Z,5.00
2018-09-02T00:17:03.050Z,5.47
2018-09-02T00:19:31.551Z,5.17
2018-09-02T00:22:00.030Z,5.07
2018-09-02T00:24:28.558Z,4.83
2018-09-02T00:26:57.108Z,5.03
2018-09-02T00:29:25.537Z,4.93
2018-09-02T00:31:53.986Z,5.37
2018-09-02T00:34:22.561Z,5.47
2018-09-02T00:36:51.276Z,5.17
2018-09-02T00:39:19.714Z,4.73
2018-09-02T00:41:48.157Z,5.20
2018-09-02T00:44:16.742Z,5.43
2018-09-02T00:46:45.206Z,4.97
2018-09-02T00:49:13.704Z,4.70
2018-09-02T00:51:42.223Z,4.67
2018-09-02T00:54:10.687Z,5.20
2018-09-02T00:56:39.195Z,5.07
2018-09-02T00:59:07.664Z,5.63
2018-09-02T01:01:36.128Z,5.57
2018-09-02T01:04:04.814Z,5.27
2018-09-02T01:06:33.318Z,4.80
2018-09-02T01:09:01.939Z,5.20
2018-09-02T01:11:30.444Z,5.50
2018-09-02T01:13:59.045Z,5.43
2018-09-02T01:16:27.496Z,5.23
2018-09-02T01:18:56.019Z,5.80
2018-09-02T01:21:24.501Z,5.97
2018-09-02T01:23:53.062Z,6.10
2018-09-02T01:26:21.490Z,6.00
2018-09-02T01:28:49.893Z,6.20
2018-09-02T01:31:18.355Z,6.00
2018-09-02T01:33:46.934Z,7.57
2018-09-02T01:36:15.420Z,5.70
2018-09-02T01:38:43.921Z,6.83
2018-09-02T01:41:12.388Z,5.90
2018-09-02T01:43:40.870Z,5.60
2018-09-02T01:46:09.338Z,6.23
2018-09-02T01:48:37.802Z,6.33
2018-09-02T01:51:06.352Z,5.73
2018-09-02T01:53:34.864Z,6.30
2018-09-02T01:56:03.409Z,6.80
2018-09-02T01:58:31.901Z,6.07
2018-09-02T02:01:00.403Z,5.60
2018-09-02T02:03:28.856Z,6.47
2018-09-02T02:05:57.368Z,6.20
2018-09-02T02:08:25.842Z,7.13
2018-09-02T02:10:54.404Z,6.50
2018-09-02T02:13:22.872Z,6.63
2018-09-02T02:15:51.390Z,6.33
2018-09-02T02:18:20.009Z,6.13
2018-09-02T02:20:48.510Z,6.77
2018-09-02T02:23:16.965Z,7.07
2018-09-02T02:25:45.427Z,6.50
2018-09-02T02:28:15.558Z,6.63
2018-09-02T02:30:44.044Z,6.20
2018-09-02T02:33:12.502Z,6.17
2018-09-02T02:35:41.000Z,6.87
2018-09-02T02:38:09.429Z,5.83
2018-09-02T02:40:38.007Z,5.93
2018-09-02T02:43:06.806Z,6.13
2018-09-02T02:45:35.285Z,6.87
2018-09-02T02:48:03.787Z,6.17
2018-09-02T02:50:32.301Z,5.57
2018-09-02T02:53:02.888Z,5.80
2018-09-02T02:55:32.585Z,5.70
2018-09-02T02:58:01.453Z,5.60
2018-09-02T03:00:30.275Z,6.53
2018-09-02T03:02:58.825Z,6.10
2018-09-02T03:05:27.293Z,6.20
2018-09-02T03:07:55.827Z,5.93
2018-09-02T03:10:24.295Z,6.37
2018-09-02T03:12:52.832Z,6.70
2018-09-02T03:15:21.268Z,6.57
2018-09-02T03:17:49.844Z,6.60
2018-09-02T03:20:18.288Z,6.60
2018-09-02T03:22:46.779Z,6.33
2018-09-02T03:25:15.302Z,6.80
2018-09-02T03:27:44.094Z,6.27
2018-09-02T03:30:12.573Z,7.33
2018-09-02T03:32:41.098Z,7.37
2018-09-02T03:35:09.602Z,7.30
2018-09-02T03:37:38.012Z,6.27
2018-09-02T03:40:06.697Z,7.20
2018-09-02T03:42:35.149Z,6.47
2018-09-02T03:45:03.692Z,7.00
2018-09-02T03:47:32.261Z,7.50
2018-09-02T03:50:00.821Z,7.73
2018-09-02T03:52:29.443Z,7.90
2018-09-02T03:54:57.920Z,8.40
2018-09-02T03:57:26.502Z,7.77
2018-09-02T03:59:55.983Z,7.77
2018-09-02T04:02:24.535Z,7.90
2018-09-02T04:04:53.023Z,7.83
2018-09-02T04:07:21.566Z,7.00
2018-09-02T04:09:50.048Z,6.57
2018-09-02T04:12:18.650Z,7.10
2018-09-02T04:14:47.146Z,9.53
2018-09-02T04:17:15.718Z,7.90
2018-09-02T04:19:44.180Z,12.87
2018-09-02T04:22:13.038Z,9.33
2018-09-02T04:24:41.961Z,10.50
2018-09-02T04:27:10.970Z,9.97
2018-09-02T04:29:39.393Z,8.47
2018-09-02T04:32:07.893Z,10.17
2018-09-02T04:34:36.364Z,9.23
2018-09-02T04:37:05.093Z,9.03
2018-09-02T04:39:33.593Z,9.83
2018-09-02T04:42:02.077Z,10.50
2018-09-02T04:44:30.535Z,9.13
2018-09-02T04:46:59.057Z,10.17
2018-09-02T04:49:27.565Z,9.20
2018-09-02T04:51:56.103Z,9.83
2018-09-02T04:54:24.624Z,10.00
2018-09-02T04:56:53.084Z,10.87
2018-09-02T04:59:21.515Z,10.00
2018-09-02T05:01:50.152Z,10.97
2018-09-02T05:04:18.625Z,10.83
2018-09-02T05:06:47.105Z,10.37
2018-09-02T05:09:15.709Z,9.30
2018-09-02T05:11:44.180Z,10.70
2018-09-02T05:14:12.720Z,10.67
2018-09-02T05:16:41.189Z,11.07
2018-09-02T05:19:09.686Z,11.47
2018-09-02T05:21:38.158Z,9.70
2018-09-02T05:24:06.755Z,9.50
2018-09-02T05:26:35.283Z,8.90
2018-09-02T05:29:03.888Z,9.17
2018-09-02T05:31:32.400Z,10.07
2018-09-02T05:34:00.836Z,8.97
2018-09-02T05:36:29.389Z,8.63
2018-09-02T05:38:57.856Z,8.97
2018-09-02T05:41:26.321Z,8.97
2018-09-02T05:43:54.868Z,8.83
2018-09-02T05:46:23.362Z,8.40
2018-09-02T05:48:51.881Z,8.37
2018-09-02T05:51:20.341Z,8.60
2018-09-02T05:53:48.859Z,7.80
2018-09-02T05:56:17.333Z,8.67
2018-09-02T05:58:45.918Z,8.13
2018-09-02T06:01:14.421Z,8.53
2018-09-02T06:03:42.996Z,9.03
2018-09-02T06:06:11.484Z,8.13
2018-09-02T06:08:40.097Z,8.60
2018-09-02T06:11:08.572Z,7.67
2018-09-02T06:13:37.218Z,7.90
2018-09-02T06:16:05.825Z,7.57
2018-09-02T06:18:34.424Z,6.90
2018-09-02T06:21:02.918Z,6.13
2018-09-02T06:23:31.348Z,6.50
2018-09-02T06:25:59.889Z,6.53
2018-09-02T06:28:28.404Z,5.83
2018-09-02T06:30:57.001Z,6.00
2018-09-02T06:33:25.446Z,6.13
2018-09-02T06:35:53.913Z,6.73
2018-09-02T06:38:22.416Z,6.30
2018-09-02T06:40:51.003Z,6.20
2018-09-02T06:43:19.476Z,6.73
2018-09-02T06:45:48.044Z,6.50
2018-09-02T06:48:19.150Z,6.87
2018-09-02T06:50:48.285Z,6.37
2018-09-02T06:53:17.069Z,6.63
2018-09-02T06:55:45.538Z,7.10
2018-09-02T06:58:14.079Z,6.13
2018-09-02T07:00:42.538Z,7.03
2018-09-02T07:03:11.123Z,6.40
2018-09-02T07:05:41.844Z,6.67
2018-09-02T07:08:11.763Z,6.20
2018-09-02T07:10:41.048Z,5.80
2018-09-02T07:13:09.754Z,6.37
2018-09-02T07:15:38.281Z,6.47
2018-09-02T07:18:07.078Z,6.37
2018-09-02T07:20:35.637Z,5.85
2018-09-02T07:23:05.036Z,7.10
2018-09-02T07:25:33.872Z,5.90
2018-09-02T07:28:02.441Z,5.72
2018-09-02T07:30:30.950Z,5.70
2018-09-02T07:32:59.613Z,5.60
2018-09-02T07:35:28.119Z,5.95
2018-09-02T07:37:56.737Z,5.10
2018-09-02T07:40:25.277Z,5.10
2018-09-02T07:42:53.765Z,4.85
2018-09-02T07:45:22.301Z,5.10
2018-09-02T07:47:50.916Z,4.53
2018-09-02T07:50:19.379Z,5.10
2018-09-02T07:52:47.949Z,4.45
2018-09-02T07:55:16.441Z,5.30
2018-09-02T07:57:44.921Z,5.45
2018-09-02T08:00:13.472Z,6.00
2018-09-02T08:02:41.991Z,5.08
2018-09-02T08:05:10.534Z,4.28
2018-09-02T08:07:39.074Z,4.78
2018-09-02T08:10:08.722Z,3.60
2018-09-02T08:14:01.641Z,2.58
2018-09-02T08:16:30.210Z,2.58
2018-09-02T08:18:58.775Z,2.90
2018-09-02T08:21:27.267Z,2.60
2018-09-02T08:23:55.837Z,3.00
2018-09-02T08:26:24.286Z,2.50
2018-09-02T08:28:52.871Z,2.33
2018-09-02T08:31:21.369Z,2.67
2018-09-02T08:33:49.928Z,2.52
2018-09-02T08:36:18.465Z,2.67
2018-09-02T08:38:46.973Z,2.42
2018-09-02T08:41:15.541Z,2.22
2018-09-02T08:43:44.164Z,2.90
2018-09-02T08:46:12.644Z,2.70
2018-09-02T08:48:41.425Z,2.08
2018-09-02T08:51:10.005Z,2.70
2018-09-02T08:53:38.539Z,2.40
2018-09-02T08:56:07.114Z,2.37
2018-09-02T08:58:35.552Z,2.67
2018-09-02T09:01:04.093Z,2.10
2018-09-02T09:03:32.644Z,2.62
2018-09-02T09:06:01.093Z,2.60
2018-09-02T09:08:29.872Z,2.52
2018-09-02T09:10:59.717Z,2.15
2018-09-02T09:13:28.322Z,2.37
2018-09-02T09:15:56.821Z,2.50
2018-09-02T09:18:25.461Z,2.35
2018-09-02T09:20:53.974Z,2.77
2018-09-02T09:23:29.347Z,2.20
2018-09-02T09:25:57.808Z,2.75
2018-09-02T09:28:26.294Z,2.40
2018-09-02T09:30:54.881Z,2.42
2018-09-02T09:33:23.595Z,2.60
2018-09-02T09:35:52.191Z,2.95
2018-09-02T09:38:20.911Z,2.60
2018-09-02T09:40:49.396Z,2.52
2018-09-02T09:43:17.963Z,2.80
2018-09-02T09:45:46.542Z,2.60
2018-09-02T09:48:15.094Z,2.62
2018-09-02T09:50:43.569Z,2.62
2018-09-02T09:53:12.111Z,2.60
2018-09-02T09:55:40.632Z,2.98
2018-09-02T09:58:09.069Z,2.95
2018-09-02T10:00:43.047Z,2.77
2018-09-02T10:03:11.632Z,2.80
2018-09-02T10:05:40.096Z,2.50
2018-09-02T10:08:08.580Z,2.52
2018-09-02T10:10:37.132Z,2.58
2018-09-02T10:13:05.965Z,2.60
2018-09-02T10:15:34.943Z,3.10
2018-09-02T10:18:03.567Z,2.55
2018-09-02T10:20:32.870Z,2.55
2018-09-02T10:23:02.211Z,2.40
2018-09-02T10:25:30.760Z,2.75
2018-09-02T10:27:59.653Z,2.35
2018-09-02T10:30:28.331Z,2.62
2018-09-02T10:32:57.389Z,2.60
2018-09-02T10:35:25.885Z,2.30
2018-09-02T10:37:54.426Z,2.45
2018-09-02T10:40:22.987Z,2.40
2018-09-02T10:42:51.694Z,2.25
2018-09-02T10:45:20.279Z,2.37
2018-09-02T10:47:48.795Z,2.50
2018-09-02T10:50:17.390Z,2.02
2018-09-02T10:52:45.916Z,2.45
2018-09-02T10:55:14.408Z,2.30
2018-09-02T10:57:42.897Z,2.40
2018-09-02T11:00:11.659Z,2.40
2018-09-02T11:02:40.461Z,2.40
2018-09-02T11:05:09.553Z,2.20
2018-09-02T11:07:38.154Z,2.77
2018-09-02T11:10:07.376Z,2.60
2018-09-02T11:12:35.953Z,2.83
2018-09-02T11:15:04.552Z,2.20
2018-09-02T11:17:33.014Z,2.57
2018-09-02T11:20:01.586Z,2.77
2018-09-02T11:22:30.094Z,2.70
2018-09-02T11:24:58.647Z,2.83
2018-09-02T11:27:27.198Z,2.33
2018-09-02T11:29:55.742Z,2.50
2018-09-02T11:32:24.429Z,2.53
2018-09-02T11:34:52.925Z,2.23
2018-09-02T11:37:21.383Z,3.03
2018-09-02T11:39:49.875Z,2.23
2018-09-02T11:42:18.444Z,2.27
2018-09-02T11:44:46.908Z,2.37
2018-09-02T11:47:15.404Z,3.10
2018-09-02T11:49:43.929Z,2.60
2018-09-02T11:52:12.634Z,2.33
2018-09-02T11:54:41.208Z,2.67
2018-09-02T11:57:09.676Z,2.37
2018-09-02T11:59:38.105Z,3.43
2018-09-02T12:02:06.659Z,2.53
2018-09-02T12:04:35.171Z,2.40
2018-09-02T12:07:03.797Z,2.87
2018-09-02T12:09:32.327Z,2.40
2018-09-02T12:12:01.051Z,2.40
2018-09-02T12:14:30.308Z,2.90
2018-09-02T12:16:58.839Z,2.67
2018-09-02T12:19:27.541Z,2.50
2018-09-02T12:21:56.212Z,2.10
2018-09-02T12:24:24.704Z,2.93
2018-09-02T12:26:53.333Z,2.90
2018-09-02T12:29:21.835Z,2.60
2018-09-02T12:31:50.586Z,2.53
2018-09-02T12:34:19.123Z,2.73
2018-09-02T12:36:47.654Z,2.60
2018-09-02T12:39:16.135Z,2.50
2018-09-02T12:41:44.743Z,2.50
2018-09-02T12:44:13.615Z,2.43
2018-09-02T12:46:42.179Z,2.70
2018-09-02T12:49:10.853Z,2.60
2018-09-02T12:51:39.617Z,2.63
2018-09-02T12:54:08.164Z,3.07
2018-09-02T12:56:36.790Z,2.87
2018-09-02T12:59:05.635Z,3.20
2018-09-02T13:01:34.182Z,2.53
2018-09-02T13:04:03.790Z,2.67
2018-09-02T13:06:32.366Z,2.83
2018-09-02T13:09:00.921Z,2.40
2018-09-02T13:11:29.459Z,2.73
2018-09-02T13:13:58.087Z,2.53
2018-09-02T13:16:26.567Z,2.23
2018-09-02T13:18:55.161Z,2.70
2018-09-02T13:21:23.580Z,2.40
2018-09-02T13:23:52.207Z,2.80
2018-09-02T13:26:20.579Z,2.53
2018-09-02T13:28:49.064Z,2.40
2018-09-02T13:31:17.577Z,2.23
2018-09-02T13:33:46.095Z,2.53
2018-09-02T13:36:14.633Z,2.27
2018-09-02T13:38:43.149Z,3.13
2018-09-02T13:41:11.708Z,2.73
2018-09-02T13:43:40.156Z,2.70
2018-09-02T13:46:08.697Z,2.50
2018-09-02T13:48:37.307Z,2.33
2018-09-02T13:51:06.011Z,2.93
2018-09-02T13:53:34.530Z,2.27
2018-09-02T13:56:03.169Z,2.50
2018-09-02T13:58:31.709Z,2.80
2018-09-02T14:01:00.267Z,2.90
2018-09-02T14:03:28.710Z,2.97
2018-09-02T14:05:57.220Z,2.00
2018-09-02T14:08:25.753Z,2.17
2018-09-02T14:10:54.284Z,2.10
2018-09-02T14:13:22.741Z,2.87
2018-09-02T14:15:51.277Z,2.30
2018-09-02T14:18:19.915Z,2.67
2018-09-02T14:20:48.536Z,2.67
2018-09-02T14:23:16.986Z,2.70
2018-09-02T14:25:45.624Z,2.10
2018-09-02T14:28:14.057Z,2.07
2018-09-02T14:30:42.556Z,2.20
2018-09-02T14:33:11.136Z,2.03
2018-09-02T14:35:39.741Z,2.30
2018-09-02T14:38:08.306Z,2.20
2018-09-02T14:40:36.811Z,2.30
2018-09-02T14:43:05.634Z,2.30
2018-09-02T14:45:34.262Z,2.20
2018-09-02T14:48:02.911Z,2.13
2018-09-02T14:50:31.448Z,2.20
2018-09-02T14:53:00.080Z,2.63
2018-09-02T14:55:28.573Z,2.60
2018-09-02T14:57:57.107Z,2.77
2018-09-02T15:00:25.581Z,2.33
2018-09-02T15:02:54.030Z,2.40
2018-09-02T15:05:22.638Z,2.40
2018-09-02T15:07:51.123Z,2.20
2018-09-02T15:10:19.705Z,2.07
2018-09-02T15:12:48.228Z,2.53
2018-09-02T15:15:16.996Z,2.00
2018-09-02T15:17:45.465Z,2.23
2018-09-02T15:20:14.103Z,2.43
2018-09-02T15:22:42.685Z,2.20
2018-09-02T15:25:11.173Z,1.97
2018-09-02T15:27:39.793Z,2.33
2018-09-02T15:30:08.337Z,1.77
2018-09-02T15:32:36.929Z,2.43
2018-09-02T15:35:05.597Z,2.73
2018-09-02T15:37:34.169Z,2.30
2018-09-02T15:40:02.895Z,1.93
2018-09-02T15:42:31.418Z,2.17
2018-09-02T15:45:00.115Z,2.40
2018-09-02T15:47:28.615Z,2.10
2018-09-02T15:49:57.267Z,2.60
2018-09-02T15:52:25.785Z,2.40
2018-09-02T15:54:54.375Z,2.00
2018-09-02T15:57:22.877Z,2.30
2018-09-02T15:59:51.449Z,2.10
2018-09-02T16:02:19.961Z,2.60
2018-09-02T16:04:48.451Z,2.33
2018-09-02T16:07:16.983Z,2.10
2018-09-02T16:09:45.473Z,2.87
2018-09-02T16:12:13.991Z,2.60
2018-09-02T16:14:42.585Z,2.17
2018-09-02T16:17:11.181Z,2.23
2018-09-02T16:19:39.745Z,2.70
2018-09-02T16:22:08.247Z,2.40
2018-09-02T16:24:37.036Z,2.33
2018-09-02T16:27:05.601Z,2.27
2018-09-02T16:29:34.131Z,2.07
2018-09-02T16:32:02.591Z,2.30
2018-09-02T16:34:31.117Z,2.17
2018-09-02T16:36:59.622Z,1.90
2018-09-02T16:39:28.258Z,1.80
2018-09-02T16:41:56.822Z,2.10
2018-09-02T16:44:25.294Z,2.87
2018-09-02T16:46:53.878Z,2.47
2018-09-02T16:49:22.365Z,2.63
2018-09-02T16:51:50.923Z,2.10
2018-09-02T16:54:19.352Z,2.30
2018-09-02T16:56:48.049Z,2.30
2018-09-02T16:59:16.605Z,2.23
2018-09-02T17:01:45.172Z,2.40
2018-09-02T17:04:14.253Z,2.00
2018-09-02T17:06:43.048Z,2.27
2018-09-02T17:09:13.915Z,2.60
2018-09-02T17:11:42.412Z,2.17
2018-09-02T17:14:10.987Z,2.10
2018-09-02T17:16:39.448Z,2.07
2018-09-02T17:19:18.877Z,2.77
2018-09-02T17:21:47.480Z,2.33
2018-09-02T17:24:15.942Z,2.30
2018-09-02T17:26:44.473Z,1.97
2018-09-02T17:29:13.139Z,2.50
2018-09-02T17:31:41.863Z,2.33
2018-09-02T17:34:10.408Z,2.27
2018-09-02T17:36:38.943Z,2.07
2018-09-02T17:39:09.883Z,2.70
2018-09-02T17:41:38.401Z,2.43
2018-09-02T17:44:07.248Z,2.17
2018-09-02T17:46:35.839Z,2.10
2018-09-02T17:49:04.552Z,1.93
2018-09-02T17:51:33.100Z,2.30
2018-09-02T17:54:01.606Z,2.00
2018-09-02T17:56:30.199Z,1.97
2018-09-02T17:58:58.826Z,2.00
2018-09-02T18:01:27.371Z,2.40
2018-09-02T18:03:55.833Z,2.33
2018-09-02T18:06:24.348Z,2.50
2018-09-02T18:08:52.881Z,2.50
2018-09-02T18:11:21.396Z,2.23
2018-09-02T18:13:49.989Z,2.57
2018-09-02T18:16:18.550Z,2.47
2018-09-02T18:18:48.182Z,2.30
2018-09-02T18:21:16.719Z,2.77
2018-09-02T18:23:45.493Z,2.80
2018-09-02T18:26:14.069Z,2.70
2018-09-02T18:28:44.635Z,2.30
2018-09-02T18:31:13.105Z,2.60
2018-09-02T18:33:41.993Z,2.80
2018-09-02T18:36:11.021Z,2.30
2018-09-02T18:38:39.554Z,2.40
2018-09-02T18:41:08.146Z,2.43
2018-09-02T18:43:37.136Z,2.53
2018-09-02T18:46:05.867Z,2.97
2018-09-02T18:48:34.810Z,2.57
2018-09-02T18:51:03.702Z,2.33
2018-09-02T18:53:32.813Z,1.93
2018-09-02T18:56:01.898Z,3.27
2018-09-02T18:58:30.880Z,2.30
2018-09-02T19:00:59.974Z,2.03
2018-09-02T19:03:28.867Z,2.07
2018-09-02T19:05:57.475Z,2.10
2018-09-02T19:08:26.336Z,2.50
2018-09-02T19:10:55.226Z,2.07
2018-09-02T19:13:24.114Z,2.40
2018-09-02T19:15:53.003Z,2.73
2018-09-02T19:18:21.997Z,2.63
2018-09-02T19:20:50.571Z,2.50
2018-09-02T19:23:19.365Z,2.43
2018-09-02T19:25:47.911Z,2.20
2018-09-02T19:30:51.763Z,2.37
2018-09-02T19:33:20.653Z,2.37
2018-09-02T19:35:49.202Z,2.40
2018-09-02T19:38:18.023Z,2.30
2018-09-02T19:40:46.574Z,2.50
2018-09-02T19:43:15.074Z,2.03
2018-09-02T19:45:43.878Z,1.83
2018-09-02T19:48:19.173Z,2.00
2018-09-02T19:50:47.774Z,1.97
2018-09-02T19:53:16.415Z,2.10
2018-09-02T19:55:45.136Z,2.53
2018-09-02T19:58:13.801Z,2.50
2018-09-02T20:00:42.610Z,1.93
2018-09-02T20:03:11.108Z,2.67
2018-09-02T20:05:39.580Z,2.27
2018-09-02T20:08:08.053Z,2.33
2018-09-02T20:10:36.526Z,2.67
2018-09-02T20:13:05.077Z,2.30
2018-09-02T20:15:33.668Z,2.50
2018-09-02T20:18:02.560Z,1.90
2018-09-02T20:20:31.067Z,2.13
2018-09-02T20:22:59.602Z,2.27
2018-09-02T20:25:28.085Z,2.07
2018-09-02T20:27:56.567Z,1.87
2018-09-02T20:30:25.143Z,2.30
2018-09-02T20:32:53.640Z,2.23
2018-09-02T20:35:22.234Z,2.40
2018-09-02T20:37:50.731Z,2.63
2018-09-02T20:40:19.237Z,2.33
2018-09-02T20:42:48.574Z,2.37
2018-09-02T20:45:17.151Z,2.70
2018-09-02T20:47:45.691Z,2.17
2018-09-02T20:50:14.226Z,2.43
2018-09-02T20:52:42.679Z,2.33
2018-09-02T20:55:11.251Z,2.43
2018-09-02T20:57:39.904Z,2.80
2018-09-02T21:00:08.490Z,2.00
2018-09-02T21:02:37.020Z,2.90
2018-09-02T21:05:05.641Z,2.90
2018-09-02T21:07:34.275Z,2.87
2018-09-02T21:10:02.836Z,2.90
2018-09-02T21:12:31.330Z,3.30
2018-09-02T21:14:59.859Z,2.70
2018-09-02T21:17:28.352Z,2.77
2018-09-02T21:19:56.799Z,3.10
2018-09-02T21:22:25.508Z,3.13
2018-09-02T21:24:54.061Z,2.63
2018-09-02T21:27:22.676Z,2.63
2018-09-02T21:29:51.152Z,3.10
2018-09-02T21:32:19.651Z,2.97
2018-09-02T21:34:48.098Z,3.10
2018-09-02T21:37:16.545Z,2.73
2018-09-02T21:39:45.012Z,3.57
2018-09-02T21:42:13.469Z,2.83
2018-09-02T21:44:41.910Z,2.93
2018-09-02T21:47:10.420Z,2.93
2018-09-02T21:49:38.887Z,2.90
2018-09-02T21:52:07.433Z,3.20
2018-09-02T21:54:35.884Z,3.10
2018-09-02T21:57:04.436Z,2.50
2018-09-02T21:59:32.926Z,3.13
2018-09-02T22:02:01.942Z,2.97
2018-09-02T22:04:30.453Z,3.07
2018-09-02T22:06:58.908Z,3.17
2018-09-02T22:09:27.532Z,3.00
2018-09-02T22:11:56.118Z,2.70
2018-09-02T22:14:24.865Z,3.23
2018-09-02T22:16:53.385Z,3.53
2018-09-02T22:19:22.136Z,3.23
2018-09-02T22:21:50.617Z,3.23
2018-09-02T22:24:19.211Z,2.83
2018-09-02T22:26:47.672Z,3.03
2018-09-02T22:29:16.155Z,2.93
2018-09-02T22:31:44.642Z,3.23
2018-09-02T22:34:13.088Z,2.97
2018-09-02T22:36:41.545Z,3.33
2018-09-02T22:39:10.027Z,3.17
2018-09-02T22:41:38.541Z,3.53
2018-09-02T22:44:07.086Z,2.90
2018-09-02T22:46:36.437Z,3.10
2018-09-02T22:49:06.844Z,3.00
2018-09-02T22:51:35.304Z,2.83
2018-09-02T22:54:03.773Z,3.40
2018-09-02T22:56:32.228Z,2.83
2018-09-02T22:59:00.855Z,3.53
2018-09-02T23:01:29.557Z,3.20
2018-09-02T23:03:58.034Z,3.10
2018-09-02T23:06:26.517Z,3.33
2018-09-02T23:08:54.972Z,3.80
2018-09-02T23:11:23.451Z,3.47
2018-09-02T23:13:52.064Z,3.13
2018-09-02T23:16:20.545Z,3.43
2018-09-02T23:18:48.981Z,3.33
2018-09-02T23:21:17.433Z,2.97
2018-09-02T23:23:45.940Z,3.20
2018-09-02T23:26:14.505Z,3.47
2018-09-02T23:28:43.041Z,3.27
2018-09-02T23:31:11.557Z,3.10
2018-09-02T23:33:40.079Z,2.97
2018-09-02T23:36:08.552Z,3.33
2018-09-02T23:38:37.002Z,3.07
2018-09-02T23:41:05.848Z,3.20
2018-09-02T23:43:34.438Z,3.00
2018-09-02T23:46:02.911Z,3.27
2018-09-02T23:48:31.378Z,3.50
2018-09-02T23:50:59.809Z,3.40
2018-09-02T23:53:28.375Z,3.63
2018-09-02T23:55:56.864Z,3.17
2018-09-02T23:58:25.354Z,3.30
